首页
METAR-TAF:

METAR-TAF

机场 :

萨斯卡通约翰·乔治·迪芬贝克国际机场

萨斯卡通, 薩斯喀徹溫, 加拿大

纬度: 52-10N, 经度: 106-41W, 海拔: 501米

当前天气观测

该预报发布于36分钟前的21:00 UTC
风速2节,风向多变
温度 8°C
湿度 36%
气压 1026 hPa
能見度: 24.1公里
少量云层高于30000英尺

METAR: CYXE 222100Z VRB02KT 15SM FEW300 08/M06 A3030 RMK CI2 SLP288

时间: 15:36 (21:36 UTC)

预报

该预报发布于3小时和58分钟前的17:38 UTC
预报有效从22日的 18点(UTC)到 23日的 18点(UTC)
风速3节,风向多变
能見度: 10公里
少量云层高于25000英尺
成为
从 22日的 20点(UTC)到 22日的 22点(UTC)
风速8节,风向东转东南
成为
从 23日的 13点(UTC)到 23日的 15点(UTC)
风速12节,风向东南

TAF: CYXE 221738Z 2218/2318 VRB03KT P6SM FEW250 BECMG 2220/2222 12008KT BECMG 2313/2315 14012KT RMK NXT FCST BY 230000Z

超过4000个机场的气象观测和天气预报(METAR&TAF报告)。

可查询的气象台以黄色和红色小点在地图上表示。

将鼠标移到小点上方,可查看气象台名称。

然后点击查看天气观测和预报。

如需切换地图:点击带黑十字的绿色按钮放大地图;点击带横线的绿色按钮缩小地图;或者点击绿色箭头查看邻近地区的地图。


METAR-TAF: